Time;durP1;ratioP1;P1;durP2;ratioP2;P2;SDS_P1;SDS_P2;PMS_P1;PMS_P2;Temp;Humidity;BMP_temperature;BMP_pressure;BME280_temperature;BME280_humidity;BME280_pressure;Samples;Min_cycle;Max_cycle;Signal;HPM_P1;HPM_P2
2022/03/29 00:01:39;;;;;;;20.38;10.55;;;;;;;10.89;45.03;94118.63;5064123;28;20024;-81
2022/03/29 00:04:04;;;;;;;21.42;9.73;;;;;;;10.90;45.18;94127.41;5063803;28;20082;-78
2022/03/29 00:06:30;;;;;;;21.00;9.73;;;;;;;10.87;45.38;94123.50;5063948;28;20029;-78
2022/03/29 00:08:56;;;;;;;18.02;9.00;;;;;;;10.84;44.87;94113.44;5062873;28;20035;-78
2022/03/29 00:11:21;;;;;;;15.70;8.35;;;;;;;10.73;44.99;94112.94;5064008;28;20043;-78
2022/03/29 00:13:47;;;;;;;21.30;8.10;;;;;;;10.71;44.93;94111.66;5063934;28;20033;-78
2022/03/29 00:16:13;;;;;;;19.42;7.90;;;;;;;10.71;44.57;94104.44;5063670;28;20096;-78
2022/03/29 00:18:38;;;;;;;17.33;7.93;;;;;;;10.69;44.58;94095.97;5063760;28;20029;-78
2022/03/29 00:21:03;;;;;;;19.35;8.45;;;;;;;10.68;45.29;94104.28;5063741;28;20070;-78
2022/03/29 00:23:29;;;;;;;26.35;11.45;;;;;;;10.70;45.38;94099.41;5063401;28;20029;-77
2022/03/29 00:25:54;;;;;;;34.60;14.35;;;;;;;10.65;45.15;94095.00;5062342;28;20254;-77
2022/03/29 00:28:20;;;;;;;28.58;11.23;;;;;;;10.58;45.36;94089.31;5063566;28;20040;-78
2022/03/29 00:30:48;;;;;;;28.10;12.55;;;;;;;10.57;45.52;94088.53;5063177;28;20056;-82
2022/03/29 00:33:13;;;;;;;29.10;12.10;;;;;;;10.57;45.47;94083.22;5063221;28;20094;-82
2022/03/29 00:35:41;;;;;;;23.13;9.93;;;;;;;10.56;45.52;94081.66;5063406;28;20327;-82
2022/03/29 00:38:07;;;;;;;26.50;9.95;;;;;;;10.55;45.48;94079.28;5062024;28;20091;-82
2022/03/29 00:40:32;;;;;;;25.35;10.20;;;;;;;10.55;45.65;94077.41;5063365;28;20246;-82
2022/03/29 00:42:58;;;;;;;19.20;9.05;;;;;;;10.54;45.72;94083.84;5063195;28;20032;-83
2022/03/29 00:45:23;;;;;;;18.58;8.43;;;;;;;10.50;45.69;94069.56;5063290;28;20043;-80
2022/03/29 00:47:49;;;;;;;20.55;9.35;;;;;;;10.47;45.48;94072.81;5063181;28;20041;-80
2022/03/29 00:50:14;;;;;;;25.38;9.48;;;;;;;10.47;45.42;94075.47;5062082;28;20076;-80
2022/03/29 00:52:40;;;;;;;28.75;9.48;;;;;;;10.46;45.73;94065.13;5063075;28;20094;-80
2022/03/29 00:55:11;;;;;;;30.17;9.90;;;;;;;10.46;45.68;94068.56;5062936;28;20075;-80
2022/03/29 00:57:37;;;;;;;28.63;10.35;;;;;;;10.43;45.67;94061.97;5062791;28;20339;-80
2022/03/29 01:00:04;;;;;;;23.45;9.77;;;;;;;10.44;45.69;94058.25;5062826;28;20029;-81
2022/03/29 01:02:32;;;;;;;25.40;11.07;;;;;;;10.40;45.68;94057.28;5062907;28;20024;-81
2022/03/29 01:04:58;;;;;;;31.08;10.88;;;;;;;10.32;46.21;94049.22;5063055;28;20268;-81
2022/03/29 01:07:24;;;;;;;28.75;10.55;;;;;;;10.27;46.20;94049.34;5062922;28;20044;-82
2022/03/29 01:09:50;;;;;;;23.55;10.20;;;;;;;10.27;45.64;94046.69;5063021;28;20086;-81
2022/03/29 01:12:15;;;;;;;17.25;9.30;;;;;;;10.23;45.87;94041.94;5062849;28;20099;-80
2022/03/29 01:14:41;;;;;;;21.90;9.88;;;;;;;10.20;46.30;94047.13;5062525;28;20223;-80
2022/03/29 01:19:53;;;;;;;19.58;10.38;;;;;;;10.10;46.48;94037.50;5062887;28;20024;-80
2022/03/29 01:22:20;;;;;;;29.80;11.38;;;;;;;10.07;46.60;94029.34;5062844;28;20017;-82
2022/03/29 01:24:49;;;;;;;21.52;9.80;;;;;;;10.07;46.73;94029.34;5062611;28;20040;-82
2022/03/29 01:27:15;;;;;;;23.65;10.68;;;;;;;10.01;46.95;94026.00;5061355;28;20346;-82
2022/03/29 01:29:43;;;;;;;21.27;9.73;;;;;;;9.90;47.09;94022.81;5061368;28;20017;-82
2022/03/29 01:32:11;;;;;;;22.08;10.43;;;;;;;9.82;47.59;94016.34;5062435;28;20025;-79
2022/03/29 01:34:40;;;;;;;20.20;9.23;;;;;;;9.79;47.39;94006.31;5062396;28;20039;-79
2022/03/29 01:37:06;;;;;;;19.42;9.70;;;;;;;9.72;47.71;94008.59;5062628;28;20021;-79
2022/03/29 01:39:33;;;;;;;24.80;8.88;;;;;;;9.70;47.84;94013.44;5062386;28;20091;-79
2022/03/29 01:41:59;;;;;;;16.83;8.55;;;;;;;9.61;48.26;94005.41;5062450;28;20032;-79
2022/03/29 01:44:24;;;;;;;17.88;8.57;;;;;;;9.59;48.12;93999.59;5062311;28;20021;-79
2022/03/29 01:46:50;;;;;;;19.88;9.32;;;;;;;9.53;48.36;93994.72;5062528;28;20023;-79
2022/03/29 01:49:16;;;;;;;17.38;9.80;;;;;;;9.49;48.45;93996.41;5062324;28;20067;-79
2022/03/29 01:51:44;;;;;;;34.67;10.75;;;;;;;9.46;48.88;94003.09;5062391;28;20021;-80
2022/03/29 01:54:09;;;;;;;23.33;11.00;;;;;;;9.41;48.78;94005.91;5062156;28;20070;-81
2022/03/29 01:56:36;;;;;;;24.50;9.80;;;;;;;9.31;48.90;93990.94;5062274;28;20041;-80
2022/03/29 01:59:07;;;;;;;19.13;9.68;;;;;;;9.27;49.08;93997.19;5062314;28;20066;-80
2022/03/29 02:01:40;;;;;;;17.73;8.82;;;;;;;9.25;49.08;93981.50;5062122;28;20021;-79
2022/03/29 02:04:05;;;;;;;18.45;8.15;;;;;;;9.19;49.37;93982.72;5062200;28;20024;-79
2022/03/29 02:06:30;;;;;;;16.58;7.15;;;;;;;9.21;49.51;93985.88;5062295;28;20073;-80
2022/03/29 02:08:59;;;;;;;17.75;8.10;;;;;;;9.18;49.42;93978.47;5062141;28;20029;-79
2022/03/29 02:11:26;;;;;;;21.27;8.57;;;;;;;9.17;49.77;93979.56;5062004;28;20063;-79
2022/03/29 02:13:52;;;;;;;15.23;7.63;;;;;;;9.11;49.69;93965.59;5062439;28;20052;-80
2022/03/29 02:16:18;;;;;;;21.73;8.23;;;;;;;9.02;49.97;93960.22;5061014;28;20020;-79
2022/03/29 02:18:43;;;;;;;18.25;8.13;;;;;;;9.00;50.16;93953.63;5061982;28;20063;-78
2022/03/29 02:21:09;;;;;;;24.27;9.40;;;;;;;8.92;50.37;93957.78;5060741;28;20020;-78
2022/03/29 02:23:34;;;;;;;21.15;9.30;;;;;;;8.95;50.47;93953.75;5062010;28;20091;-78
2022/03/29 02:25:59;;;;;;;29.05;10.85;;;;;;;8.90;50.61;93953.88;5062006;28;20085;-79
2022/03/29 02:28:25;;;;;;;26.35;11.23;;;;;;;8.88;50.67;93948.84;5064626;28;20345;-78
2022/03/29 02:30:51;;;;;;;28.77;11.23;;;;;;;8.81;50.63;93943.94;5065930;28;20029;-79
2022/03/29 02:33:16;;;;;;;20.50;10.10;;;;;;;8.82;50.76;93947.38;5065754;28;20021;-79
2022/03/29 02:35:42;;;;;;;21.08;8.63;;;;;;;8.80;50.91;93949.56;5065514;28;20021;-80
2022/03/29 02:38:07;;;;;;;17.63;8.80;;;;;;;8.70;51.16;93947.91;5065518;28;20024;-79
2022/03/29 02:40:33;;;;;;;17.45;7.90;;;;;;;8.64;51.52;93947.22;5065650;28;20021;-80
2022/03/29 02:42:59;;;;;;;18.17;8.38;;;;;;;8.62;51.43;93949.38;5065499;28;20024;-80
2022/03/29 02:45:26;;;;;;;17.17;7.72;;;;;;;8.56;51.69;93945.25;5065666;28;20024;-81
2022/03/29 02:47:54;;;;;;;20.00;8.50;;;;;;;8.56;51.73;93953.22;5064383;28;20294;-80
2022/03/29 02:50:21;;;;;;;17.45;8.73;;;;;;;8.57;51.79;93948.72;5065487;28;20047;-80
2022/03/29 02:52:52;;;;;;;16.08;7.78;;;;;;;8.53;51.96;93948.53;5065234;28;20035;-79
2022/03/29 02:55:19;;;;;;;14.73;8.52;;;;;;;8.54;51.80;93944.78;5065205;28;20230;-79
2022/03/29 02:57:46;;;;;;;15.98;7.88;;;;;;;8.44;51.99;93945.75;5065188;28;20064;-80
2022/03/29 03:00:16;;;;;;;25.20;10.80;;;;;;;8.38;52.25;93948.78;5063950;28;20017;-80
2022/03/29 03:02:46;;;;;;;41.38;11.75;;;;;;;8.36;52.19;93943.78;5065111;28;20021;-80
2022/03/29 03:05:12;;;;;;;33.63;12.77;;;;;;;8.36;52.21;93943.00;5064843;28;20082;-79
2022/03/29 03:07:39;;;;;;;22.52;9.77;;;;;;;8.36;52.15;93946.44;5065060;28;20092;-80
2022/03/29 03:10:05;;;;;;;25.52;9.85;;;;;;;8.36;52.25;93935.03;5064873;28;20032;-79
2022/03/29 03:12:40;;;;;;;19.45;8.70;;;;;;;8.32;52.24;93940.13;5065003;28;20028;-80
2022/03/29 03:15:07;;;;;;;23.90;7.80;;;;;;;8.30;52.01;93936.22;5064970;28;20024;-80
2022/03/29 03:17:33;;;;;;;16.02;8.20;;;;;;;8.31;52.12;93943.09;5064825;28;20038;-80
2022/03/29 03:19:58;;;;;;;19.10;8.50;;;;;;;8.28;52.18;93944.47;5064841;28;20044;-80
2022/03/29 03:22:24;;;;;;;16.77;7.95;;;;;;;8.28;52.21;93946.34;5064804;28;20025;-80
2022/03/29 03:24:50;;;;;;;21.20;10.93;;;;;;;8.27;52.35;93940.25;5065023;28;20020;-79
2022/03/29 03:27:16;;;;;;;24.83;8.60;;;;;;;8.28;52.45;93938.38;5064825;28;20283;-79
2022/03/29 03:29:42;;;;;;;17.77;8.35;;;;;;;8.28;52.19;93933.06;5063417;28;20020;-79
2022/03/29 03:32:08;;;;;;;23.02;8.48;;;;;;;8.21;52.34;93934.25;5064383;28;20023;-80
2022/03/29 03:34:34;;;;;;;22.63;9.50;;;;;;;8.23;52.37;93931.31;5064678;28;20032;-79
2022/03/29 03:37:02;;;;;;;21.00;10.38;;;;;;;8.27;52.29;93936.81;5064634;28;20212;-79
2022/03/29 03:39:28;;;;;;;30.92;12.38;;;;;;;8.24;52.26;93932.84;5063711;28;20023;-78
2022/03/29 03:41:54;;;;;;;32.78;11.90;;;;;;;8.26;52.47;93935.22;5064755;28;20207;-78
2022/03/29 03:44:20;;;;;;;28.77;12.65;;;;;;;8.20;52.42;93932.69;5064481;28;20013;-78
2022/03/29 03:46:45;;;;;;;26.05;10.73;;;;;;;8.16;52.66;93931.72;5064302;28;20223;-78
2022/03/29 03:49:11;;;;;;;24.52;10.93;;;;;;;8.17;52.75;93927.94;5064172;28;20017;-81
2022/03/29 03:51:37;;;;;;;25.20;10.45;;;;;;;8.12;52.84;93929.91;5064180;28;20255;-80
2022/03/29 03:54:02;;;;;;;20.25;9.57;;;;;;;8.07;52.91;93938.78;5064232;28;20024;-78
2022/03/29 03:56:28;;;;;;;26.30;9.88;;;;;;;8.09;53.16;93941.13;5064378;28;20053;-77
2022/03/29 03:58:53;;;;;;;16.13;8.82;;;;;;;8.10;53.50;93932.06;5064606;28;20281;-76
2022/03/29 04:01:19;;;;;;;22.08;9.43;;;;;;;8.07;53.63;93936.13;5064376;28;20074;-85
2022/03/29 04:03:44;;;;;;;15.93;9.30;;;;;;;8.10;53.08;93927.56;5063982;28;20394;-78
2022/03/29 04:06:10;;;;;;;20.00;9.05;;;;;;;8.05;52.96;93932.97;5063866;28;20021;-79
2022/03/29 04:08:35;;;;;;;28.80;10.13;;;;;;;7.98;53.36;93929.94;5063801;28;20023;-78
2022/03/29 04:11:02;;;;;;;23.25;9.95;;;;;;;7.98;53.61;93928.06;5063911;28;20021;-77
2022/03/29 04:13:28;;;;;;;25.83;11.05;;;;;;;8.00;53.53;93927.78;5063845;28;20020;-77
2022/03/29 04:15:53;;;;;;;22.67;9.85;;;;;;;8.01;53.66;93934.63;5063794;28;20390;-78
2022/03/29 04:18:19;;;;;;;24.88;9.68;;;;;;;8.00;53.35;93933.09;5063628;28;20037;-76
2022/03/29 04:20:45;;;;;;;22.35;10.20;;;;;;;7.96;53.59;93926.78;5063546;28;20051;-77
2022/03/29 04:23:10;;;;;;;18.65;10.63;;;;;;;7.92;53.52;93925.81;5063554;28;20036;-76
2022/03/29 04:25:36;;;;;;;21.73;9.10;;;;;;;7.94;53.70;93931.59;5063272;28;20021;-78
2022/03/29 04:28:01;;;;;;;27.23;11.00;;;;;;;7.91;53.73;93929.53;5063389;28;20223;-79
2022/03/29 04:30:27;;;;;;;20.63;8.32;;;;;;;7.92;53.64;93941.72;5063347;28;20028;-80
2022/03/29 04:32:53;;;;;;;23.23;9.93;;;;;;;7.89;53.87;93932.47;5062946;28;20027;-81
2022/03/29 04:35:19;;;;;;;17.50;8.65;;;;;;;7.91;53.73;93926.88;5062100;28;20223;-79
2022/03/29 04:37:44;;;;;;;19.75;8.02;;;;;;;7.91;53.65;93924.22;5063223;28;20044;-79
2022/03/29 04:40:10;;;;;;;27.02;9.10;;;;;;;7.92;53.88;93931.88;5063389;28;20066;-80
2022/03/29 04:42:44;;;;;;;36.00;9.90;;;;;;;7.86;53.97;93926.94;5063126;28;20080;-80
2022/03/29 04:45:09;;;;;;;25.13;9.20;;;;;;;7.81;54.17;93920.66;5062299;28;20032;-79
2022/03/29 04:47:35;;;;;;;21.35;9.75;;;;;;;7.89;54.22;93919.19;5063085;28;20024;-80
2022/03/29 04:50:01;;;;;;;19.15;8.57;;;;;;;7.87;54.07;93923.22;5062745;28;20108;-80
2022/03/29 04:52:26;;;;;;;16.92;8.43;;;;;;;7.80;54.46;93932.38;5062593;28;20123;-80
2022/03/29 04:54:52;;;;;;;19.83;9.57;;;;;;;7.84;54.28;93929.91;5063246;28;20021;-79
2022/03/29 04:57:18;;;;;;;31.83;9.23;;;;;;;7.92;54.11;93920.50;5062813;28;20044;-80
2022/03/29 04:59:43;;;;;;;23.17;9.10;;;;;;;8.01;53.88;93934.63;5062720;28;20315;-80
2022/03/29 05:02:08;;;;;;;22.35;9.40;;;;;;;8.01;53.98;93935.41;5062874;28;20013;-80
2022/03/29 05:04:34;;;;;;;24.98;11.45;;;;;;;8.10;54.36;93927.56;5062836;28;20008;-81
2022/03/29 05:06:59;;;;;;;27.73;11.00;;;;;;;8.13;54.08;93929.63;5063131;28;20043;-81
2022/03/29 05:09:25;;;;;;;16.92;9.65;;;;;;;8.18;54.00;93932.19;5062900;28;20024;-81
2022/03/29 05:11:50;;;;;;;35.25;9.77;;;;;;;8.31;53.79;93929.81;5062600;28;20100;-80
2022/03/29 05:14:16;;;;;;;24.20;9.02;;;;;;;8.41;53.76;93927.78;5062354;28;20024;-80
2022/03/29 05:16:41;;;;;;;29.02;10.60;;;;;;;8.50;52.96;93930.50;5062713;28;20365;-80
2022/03/29 05:19:07;;;;;;;27.35;10.57;;;;;;;8.50;52.91;93924.41;5063100;28;20025;-80
2022/03/29 05:21:32;;;;;;;20.70;9.80;;;;;;;8.51;53.31;93924.13;5062577;28;20028;-80
2022/03/29 05:23:58;;;;;;;29.33;10.50;;;;;;;8.59;53.25;93923.41;5062358;28;20013;-80
2022/03/29 05:26:24;;;;;;;25.52;10.27;;;;;;;8.68;52.89;93926.16;5062724;28;20278;-79
2022/03/29 05:28:49;;;;;;;29.80;11.43;;;;;;;8.78;53.16;93920.59;5062345;28;20300;-80
2022/03/29 05:31:15;;;;;;;29.70;11.40;;;;;;;8.90;52.97;93925.41;5062500;28;20024;-79
2022/03/29 05:33:41;;;;;;;26.08;9.85;;;;;;;8.99;52.82;93936.09;5062309;28;20040;-81
2022/03/29 05:36:07;;;;;;;20.27;10.48;;;;;;;9.11;52.67;93927.59;5062681;28;20204;-80
2022/03/29 05:38:33;;;;;;;27.10;10.90;;;;;;;9.24;52.04;93922.22;5062394;28;20025;-80
2022/03/29 05:40:58;;;;;;;44.90;14.43;;;;;;;9.34;51.85;93926.53;5062375;28;20175;-79
2022/03/29 05:43:24;;;;;;;23.50;11.52;;;;;;;9.48;51.30;93925.66;5062616;28;20021;-80
2022/03/29 05:48:52;;;;;;;37.45;12.02;;;;;;;9.60;50.71;93931.97;5062260;28;20021;-80
2022/03/29 05:48:55;;;;;;;32.88;12.27;;;;;;;9.76;50.33;93931.59;5062240;28;20104;-80
2022/03/29 05:51:23;;;;;;;32.13;12.00;;;;;;;9.87;50.11;93929.47;5061051;28;20033;-80
2022/03/29 05:53:50;;;;;;;30.75;12.18;;;;;;;9.95;49.52;93928.72;5062042;28;20258;-80
2022/03/29 05:56:15;;;;;;;22.90;10.70;;;;;;;10.08;48.85;93935.03;5062343;28;20269;-80
2022/03/29 05:58:41;;;;;;;39.05;9.82;;;;;;;10.19;48.28;93923.00;5062546;28;20021;-80
2022/03/29 06:01:07;;;;;;;32.40;9.77;;;;;;;10.32;48.09;93926.66;5062575;28;20059;-80
2022/03/29 06:03:32;;;;;;;24.02;9.32;;;;;;;10.42;48.05;93910.41;5064227;28;20192;-80
2022/03/29 06:05:57;;;;;;;19.45;9.52;;;;;;;10.54;47.63;93912.47;5065358;28;20020;-80
2022/03/29 06:08:23;;;;;;;28.38;9.90;;;;;;;10.63;47.74;93916.72;5066321;28;20326;-80
2022/03/29 06:10:49;;;;;;;30.92;10.80;;;;;;;10.74;46.89;93922.53;5066353;28;20091;-80
2022/03/29 06:13:14;;;;;;;23.02;11.90;;;;;;;10.86;46.73;93919.25;5065907;28;20177;-80
2022/03/29 06:15:40;;;;;;;29.85;11.07;;;;;;;10.96;46.39;93918.16;5065892;28;20028;-80
2022/03/29 06:18:06;;;;;;;42.67;12.00;;;;;;;11.09;45.83;93924.44;5065952;28;20059;-80
2022/03/29 06:20:31;;;;;;;26.60;13.18;;;;;;;11.22;45.51;93918.16;5065776;28;20024;-82
2022/03/29 06:22:57;;;;;;;21.83;11.13;;;;;;;11.30;45.53;93912.03;5065888;28;20032;-80
2022/03/29 06:25:22;;;;;;;37.38;11.80;;;;;;;11.43;44.96;93918.28;5065907;28;20012;-80
2022/03/29 06:27:49;;;;;;;28.55;12.07;;;;;;;11.53;44.81;93923.31;5065898;28;20035;-80
2022/03/29 06:30:16;;;;;;;34.35;12.45;;;;;;;11.65;44.75;93907.41;5065702;28;20020;-80
2022/03/29 06:32:50;;;;;;;27.13;11.23;;;;;;;11.77;44.59;93898.75;5064382;28;20196;-80
2022/03/29 06:35:27;;;;;;;27.17;10.43;;;;;;;11.85;44.38;93911.28;5065621;28;20369;-80
2022/03/29 06:37:55;;;;;;;28.85;11.55;;;;;;;11.95;44.19;93906.75;5065796;28;20219;-80
2022/03/29 06:40:22;;;;;;;31.05;10.02;;;;;;;12.07;43.58;93914.88;5065482;28;20107;-81
2022/03/29 06:42:48;;;;;;;30.58;11.65;;;;;;;12.18;43.38;93907.28;5065429;28;20041;-81
2022/03/29 06:45:14;;;;;;;31.35;12.02;;;;;;;12.30;42.86;93915.38;5063870;28;20033;-79
2022/03/29 06:47:39;;;;;;;27.40;11.45;;;;;;;12.41;42.62;93903.19;5065307;28;20311;-80
2022/03/29 06:50:06;;;;;;;21.17;10.20;;;;;;;12.54;42.59;93903.31;5065102;28;20025;-80
2022/03/29 06:52:36;;;;;;;30.60;10.93;;;;;;;12.65;42.28;93905.28;5065446;28;20091;-80
2022/03/29 06:55:02;;;;;;;29.00;11.27;;;;;;;12.76;42.10;93900.34;5065318;28;20092;-80
2022/03/29 06:57:28;;;;;;;32.00;11.05;;;;;;;12.86;42.04;93901.81;5065229;28;20045;-80
2022/03/29 06:59:53;;;;;;;26.30;10.38;;;;;;;12.96;41.65;93904.13;5065281;28;20049;-80
2022/03/29 07:02:19;;;;;;;25.27;11.52;;;;;;;13.05;41.33;93896.81;5065073;28;20040;-80
2022/03/29 07:04:45;;;;;;;35.50;11.48;;;;;;;13.13;41.38;93892.50;5065080;28;20319;-80
2022/03/29 07:07:10;;;;;;;23.73;10.43;;;;;;;13.27;40.44;93891.44;5065141;28;20021;-80
2022/03/29 07:12:20;;;;;;;33.80;11.15;;;;;;;13.43;40.59;93897.78;5065101;28;20028;-81
2022/03/29 07:14:46;;;;;;;26.17;10.65;;;;;;;13.52;40.36;93893.13;5063965;28;20028;-81
2022/03/29 07:17:13;;;;;;;32.63;15.52;;;;;;;13.65;40.08;93889.34;5064965;28;20028;-81
2022/03/29 07:19:39;;;;;;;28.65;11.00;;;;;;;13.69;39.72;93886.81;5064769;28;20020;-80
2022/03/29 07:22:05;;;;;;;21.58;10.00;;;;;;;13.76;39.32;93891.59;5064959;28;20100;-80
2022/03/29 07:24:31;;;;;;;25.15;9.90;;;;;;;13.85;38.97;93892.31;5064934;28;20021;-81
2022/03/29 07:26:57;;;;;;;24.05;9.98;;;;;;;13.94;38.68;93892.19;5064718;28;20021;-81
2022/03/29 07:29:22;;;;;;;24.00;9.57;;;;;;;14.05;38.80;93882.63;5064677;28;20033;-81
2022/03/29 07:31:48;;;;;;;34.88;10.82;;;;;;;14.16;38.40;93883.72;5064683;28;20039;-81
2022/03/29 07:34:13;;;;;;;25.77;10.30;;;;;;;14.27;38.00;93885.97;5064495;28;20035;-81
2022/03/29 07:36:40;;;;;;;24.30;9.98;;;;;;;14.38;37.60;93881.72;5064405;28;20024;-81
2022/03/29 07:39:05;;;;;;;25.15;9.85;;;;;;;14.53;37.44;93886.44;5064724;28;20024;-81
2022/03/29 07:41:32;;;;;;;18.85;9.40;;;;;;;14.61;36.46;93880.19;5064678;28;20071;-81
2022/03/29 07:43:58;;;;;;;23.13;9.15;;;;;;;14.43;36.92;93876.94;5064686;28;20062;-81
2022/03/29 07:46:23;;;;;;;21.33;9.75;;;;;;;14.45;37.08;93872.00;5064366;28;20319;-81
2022/03/29 07:48:49;;;;;;;39.40;10.05;;;;;;;14.58;37.07;93870.13;5064383;28;20033;-81
2022/03/29 07:51:18;;;;;;;27.05;9.88;;;;;;;14.77;36.18;93869.53;5064320;28;20063;-80
2022/03/29 07:53:47;;;;;;;22.83;9.35;;;;;;;14.86;35.05;93877.47;5064038;28;20052;-81
2022/03/29 07:56:13;;;;;;;27.58;9.63;;;;;;;14.64;35.55;93860.72;5064248;28;20107;-80
2022/03/29 07:58:39;;;;;;;19.35;7.38;;;;;;;14.68;34.76;93862.75;5064084;28;20045;-80
2022/03/29 08:01:05;;;;;;;16.63;7.90;;;;;;;14.74;35.31;93853.34;5064108;28;20372;-81
2022/03/29 08:03:33;;;;;;;26.73;9.82;;;;;;;14.86;35.63;93853.31;5064281;28;20021;-81
2022/03/29 08:06:01;;;;;;;27.52;8.15;;;;;;;15.01;35.05;93857.16;5064048;28;20020;-81
2022/03/29 08:08:27;;;;;;;25.48;8.30;;;;;;;15.15;35.09;93856.78;5064129;28;20096;-80
2022/03/29 08:10:52;;;;;;;16.50;8.23;;;;;;;15.10;34.02;93852.47;5063853;28;20036;-81
2022/03/29 08:13:18;;;;;;;25.95;9.23;;;;;;;14.98;34.95;93860.53;5064011;28;20025;-81
2022/03/29 08:15:46;;;;;;;21.10;8.55;;;;;;;15.09;35.17;93852.78;5063713;28;20029;-81
2022/03/29 08:18:12;;;;;;;27.70;8.27;;;;;;;15.20;35.18;93846.59;5063779;28;20024;-80
2022/03/29 08:20:38;;;;;;;20.23;7.85;;;;;;;15.35;34.76;93845.06;5063217;28;20016;-80
2022/03/29 08:23:05;;;;;;;22.98;8.25;;;;;;;15.47;34.25;93843.44;5063634;28;20027;-81
2022/03/29 08:25:33;;;;;;;17.02;7.18;;;;;;;15.57;33.85;93841.03;5063550;28;20020;-81
2022/03/29 08:27:59;;;;;;;19.30;7.00;;;;;;;15.64;33.52;93833.16;5063660;28;20024;-81
2022/03/29 08:30:26;;;;;;;24.42;7.20;;;;;;;15.77;33.39;93835.78;5063708;28;20017;-81
2022/03/29 08:32:53;;;;;;;17.38;7.65;;;;;;;15.84;33.11;93828.69;5063438;28;20402;-81
2022/03/29 08:35:18;;;;;;;18.27;7.60;;;;;;;15.84;33.34;93819.84;5062294;28;20276;-81
2022/03/29 08:37:46;;;;;;;38.90;8.40;;;;;;;15.91;32.83;93822.69;5063282;28;20096;-80
2022/03/29 08:40:15;;;;;;;22.08;7.88;;;;;;;15.91;33.64;93817.31;5063561;28;20020;-81
2022/03/29 08:42:42;;;;;;;17.33;6.90;;;;;;;16.01;33.45;93807.97;5062238;28;20017;-80
2022/03/29 08:45:09;;;;;;;27.25;8.75;;;;;;;16.12;33.27;93803.63;5063210;28;20327;-80
2022/03/29 08:47:35;;;;;;;20.67;7.53;;;;;;;16.22;32.76;93803.09;5063457;28;20024;-80
2022/03/29 08:50:03;;;;;;;20.98;7.20;;;;;;;16.30;32.36;93801.31;5062143;28;20020;-80
2022/03/29 08:52:30;;;;;;;28.75;7.28;;;;;;;16.38;32.22;93791.50;5063517;28;20100;-80
2022/03/29 08:54:56;;;;;;;16.48;5.75;;;;;;;16.31;31.57;93783.28;5062988;28;20036;-80
2022/03/29 08:57:21;;;;;;;16.95;5.75;;;;;;;16.18;32.09;93786.09;5062993;28;20033;-80
2022/03/29 08:59:47;;;;;;;12.68;5.65;;;;;;;16.06;31.61;93783.53;5063184;28;20369;-80
2022/03/29 09:02:17;;;;;;;19.52;6.75;;;;;;;16.03;30.89;93784.19;5062801;28;20243;-81
2022/03/29 09:04:44;;;;;;;17.98;5.47;;;;;;;15.99;30.31;93784.09;5062916;28;20020;-80
2022/03/29 09:07:10;;;;;;;17.83;5.78;;;;;;;15.81;29.76;93769.47;5062937;28;20021;-80
2022/03/29 09:09:38;;;;;;;25.58;6.53;;;;;;;15.70;29.90;93763.81;5062482;28;20031;-80
2022/03/29 09:12:18;;;;;;;24.55;6.45;;;;;;;15.47;31.03;93762.84;5062906;28;20021;-80
2022/03/29 09:14:54;;;;;;;17.63;5.05;;;;;;;15.40;31.56;93756.19;5062681;28;20028;-80
2022/03/29 09:17:40;;;;;;;24.85;6.28;;;;;;;15.38;31.88;93758.44;5062778;28;20017;-80
2022/03/29 09:20:23;;;;;;;24.10;6.68;;;;;;;15.29;31.99;93759.75;5062508;28;20017;-81
2022/03/29 09:22:55;;;;;;;21.05;6.60;;;;;;;15.30;32.42;93748.63;5062740;28;20025;-80
2022/03/29 09:25:39;;;;;;;24.38;5.28;;;;;;;15.21;31.48;93758.78;5062785;28;20037;-81
2022/03/29 09:28:10;;;;;;;14.73;4.40;;;;;;;15.20;31.71;93759.88;5061347;28;20033;-81
2022/03/29 09:30:46;;;;;;;13.73;4.60;;;;;;;15.17;31.16;93747.94;5061394;28;20024;-81
2022/03/29 09:33:16;;;;;;;25.10;5.72;;;;;;;15.29;32.59;93735.59;5062582;28;20031;-81
2022/03/29 09:36:03;;;;;;;18.35;6.05;;;;;;;15.51;32.90;93736.88;5062574;28;20036;-81
2022/03/29 09:38:35;;;;;;;16.33;5.88;;;;;;;15.72;32.31;93732.03;5062069;28;20029;-81
2022/03/29 09:41:02;;;;;;;18.90;6.28;;;;;;;15.94;31.07;93735.25;5062683;28;20301;-81
2022/03/29 09:43:29;;;;;;;19.23;6.85;;;;;;;15.94;31.12;93729.88;5062501;28;20050;-81
2022/03/29 09:45:58;;;;;;;18.83;6.53;;;;;;;16.17;31.31;93720.00;5062551;28;20399;-81
2022/03/29 09:48:32;;;;;;;16.55;5.78;;;;;;;16.40;30.82;93727.38;5062398;28;20029;-82
2022/03/29 09:51:16;;;;;;;16.75;6.10;;;;;;;16.46;30.04;93725.97;5062509;28;20033;-81
2022/03/29 09:53:51;;;;;;;21.13;5.60;;;;;;;16.56;30.46;93722.72;5062320;28;20028;-83
2022/03/29 09:56:20;;;;;;;19.00;5.47;;;;;;;16.68;30.01;93719.09;5062962;28;20067;-80
2022/03/29 09:58:46;;;;;;;18.63;6.25;;;;;;;16.86;30.23;93714.09;5064762;28;20025;-80
2022/03/29 10:01:25;;;;;;;25.88;6.60;;;;;;;17.06;29.98;93720.25;5063903;28;20045;-74
2022/03/29 10:03:53;;;;;;;19.60;5.97;;;;;;;17.28;29.79;93713.34;5063384;28;20051;-75
2022/03/29 10:06:22;;;;;;;23.02;5.05;;;;;;;16.87;27.87;93706.81;5062338;28;20044;-74
2022/03/29 10:11:35;;;;;;;26.27;5.32;;;;;;;16.53;29.11;93701.16;5062332;28;20075;-75
2022/03/29 10:14:08;;;;;;;21.20;5.72;;;;;;;16.51;29.37;93698.03;5062293;28;20227;-76
2022/03/29 10:16:35;;;;;;;20.08;5.38;;;;;;;16.37;28.95;93698.50;5062365;28;20039;-77
2022/03/29 10:19:02;;;;;;;18.45;5.40;;;;;;;15.99;30.35;93694.63;5062568;28;20092;-77
2022/03/29 10:21:29;;;;;;;19.80;5.07;;;;;;;15.98;30.89;93693.09;5062963;28;20017;-75
2022/03/29 10:23:54;;;;;;;16.45;5.85;;;;;;;15.90;30.30;93688.69;5061764;28;20017;-75
2022/03/29 10:26:28;;;;;;;23.00;5.32;;;;;;;15.58;30.69;93686.78;5062812;28;20023;-76
2022/03/29 10:28:53;;;;;;;28.08;4.20;;;;;;;15.55;31.24;93684.81;5060773;28;20338;-76
2022/03/29 10:31:48;;;;;;;13.88;4.97;;;;;;;15.63;31.59;93683.03;5061998;28;20021;-77
2022/03/29 10:34:26;;;;;;;15.00;4.38;;;;;;;15.51;30.78;93688.53;5061923;28;20227;-77
2022/03/29 10:36:59;;;;;;;17.10;4.97;;;;;;;15.51;31.24;93680.47;5062093;28;20048;-77
2022/03/29 10:40:03;;;;;;;22.98;5.35;;;;;;;15.51;30.89;93691.19;5060807;28;20017;-76
2022/03/29 10:42:43;;;;;;;20.17;5.30;;;;;;;15.63;30.43;93672.28;5059272;28;20118;-76
2022/03/29 10:45:23;;;;;;;13.68;4.47;;;;;;;15.50;29.30;93677.00;5061695;28;20323;-76
2022/03/29 10:48:01;;;;;;;14.48;5.22;;;;;;;15.54;30.20;93675.19;5060781;28;20108;-76
2022/03/29 10:51:02;;;;;;;12.70;4.65;;;;;;;15.66;30.09;93663.56;5064478;28;20033;-76
2022/03/29 10:53:42;;;;;;;18.30;5.10;;;;;;;15.78;30.04;93663.47;5043506;28;20255;-76
2022/03/29 10:56:17;;;;;;;18.92;5.32;;;;;;;16.06;29.58;93662.53;5062799;28;20067;-76
2022/03/29 10:59:01;;;;;;;32.40;5.38;;;;;;;16.38;29.26;93648.94;5064231;28;20032;-79
2022/03/29 11:01:27;;;;;;;17.85;3.90;;;;;;;16.49;29.73;93647.25;5065142;28;20044;-76
2022/03/29 11:04:13;;;;;;;24.67;4.60;;;;;;;16.66;28.65;93640.66;5064922;28;20276;-78
2022/03/29 11:07:04;;;;;;;20.50;6.55;;;;;;;16.76;29.13;93633.91;5065290;28;20028;-75
2022/03/29 11:09:30;;;;;;;15.45;4.38;;;;;;;16.97;28.80;93630.84;5064927;28;20017;-75
2022/03/29 11:11:55;;;;;;;13.55;3.97;;;;;;;17.14;27.66;93624.22;5064746;28;20059;-74
2022/03/29 11:14:30;;;;;;;19.63;4.05;;;;;;;16.96;27.22;93624.69;5064921;28;20327;-76
2022/03/29 11:17:14;;;;;;;22.88;4.53;;;;;;;16.83;27.65;93616.00;5064860;28;20028;-75
2022/03/29 11:19:48;;;;;;;17.67;3.92;;;;;;;16.81;26.99;93615.59;5064771;28;20033;-75
2022/03/29 11:22:36;;;;;;;14.52;4.40;;;;;;;16.87;27.80;93615.28;5064736;28;20096;-74
2022/03/29 11:25:22;;;;;;;10.10;3.85;;;;;;;16.80;26.90;93608.63;5064642;28;20032;-75
2022/03/29 11:27:48;;;;;;;19.30;4.70;;;;;;;17.02;27.67;93604.41;5064638;28;20025;-75
2022/03/29 11:30:14;;;;;;;18.40;6.45;;;;;;;17.16;27.62;93600.41;5063496;28;20066;-76
2022/03/29 11:32:42;;;;;;;11.45;4.10;;;;;;;17.30;26.80;93602.50;5064477;28;20025;-75
2022/03/29 11:35:08;;;;;;;13.40;4.00;;;;;;;17.33;26.94;93597.19;5064274;28;20256;-76
2022/03/29 11:37:38;;;;;;;22.48;4.82;;;;;;;17.37;27.67;93598.03;5064729;28;20262;-76
2022/03/29 11:40:06;;;;;;;14.23;4.35;;;;;;;17.54;27.18;93591.34;5064445;28;20025;-77